Webcam Flughafen St.Gallen-Altenrhein

Live-Bilder und Zeitraffer LSZR / ACH.

 

Live aus Altenrhein
LIVE
LSZR 201150Z 30003KT CAVOK 03/02 Q1010 NOSIG RMK G
Zeitraffer heute
2021-01-20 00:13:51
LSZR 192250Z AUTO VRB02KT CAVOK M01/M01 Q1015